Terminal Aerodrome Forecast
Issued by NWS

Home | Current Version | Previous Version | Graphics & Text | Print | Product List | Glossary On
Versions: 1 2 3 4 5 6 7 8 9 10 11 12 13 14 15
000
FTUS43 KIWX 202300
TAFSBN
TAF
KSBN 202320Z 2100/2124 18007KT P6SM SCT250
     FM211200 21008KT P6SM BKN150
     FM211800 23013G19KT P6SM BKN060=

USA.gov is the U.S. government's official web portal to all federal, state and local government web resources and services.